Time;durP1;ratioP1;P1;durP2;ratioP2;P2;SDS_P1;SDS_P2;PMS_P1;PMS_P2;Temp;Humidity;BMP_temperature;BMP_pressure;BME280_temperature;BME280_humidity;BME280_pressure;Samples;Min_cycle;Max_cycle;Signal;HPM_P1;HPM_P2
2022/06/22 00:04:17;;;;;;;1.27;0.50;;;;;;;17.67;100.00;97956.63;15286069;19;20006;-49
2022/06/22 00:09:26;;;;;;;1.73;0.63;;;;;;;17.66;100.00;97970.47;15283720;19;20022;-50
2022/06/22 00:14:37;;;;;;;2.90;0.50;;;;;;;17.65;100.00;97974.25;15279873;19;20011;-53
2022/06/22 00:25:30;;;;;;;1.35;0.68;;;;;;;17.62;100.00;97958.31;15282910;19;20006;-53
2022/06/22 00:30:35;;;;;;;2.50;0.68;;;;;;;17.60;100.00;97950.38;15276571;19;20035;-54
2022/06/22 00:35:53;;;;;;;1.70;0.60;;;;;;;17.56;100.00;97954.59;15281432;19;20010;-57
2022/06/22 00:41:04;;;;;;;2.25;0.60;;;;;;;17.53;100.00;97966.75;15281364;19;20031;-53
2022/06/22 00:46:18;;;;;;;1.55;0.50;;;;;;;17.53;100.00;97961.31;15276658;19;20010;-56
2022/06/22 00:51:34;;;;;;;1.52;0.60;;;;;;;17.51;100.00;97955.25;15276596;19;20050;-49
2022/06/22 00:56:49;;;;;;;1.98;0.73;;;;;;;17.47;100.00;97945.81;15278292;19;20035;-51
2022/06/22 01:01:58;;;;;;;1.10;0.50;;;;;;;17.41;100.00;97925.75;15277316;19;20023;-55
2022/06/22 01:07:10;;;;;;;1.85;0.77;;;;;;;17.37;100.00;97929.97;15279071;19;20018;-50
2022/06/22 01:12:26;;;;;;;1.20;0.70;;;;;;;17.27;100.00;97945.09;15275420;19;20757;-53
2022/06/22 01:17:38;;;;;;;2.03;0.70;;;;;;;17.23;100.00;97937.34;15264797;19;20034;-55
2022/06/22 01:22:58;;;;;;;1.42;0.60;;;;;;;17.17;100.00;97938.22;15271022;19;20039;-56
2022/06/22 01:28:07;;;;;;;2.73;0.83;;;;;;;17.10;100.00;97940.16;15279477;19;20026;-54
2022/06/22 01:33:24;;;;;;;4.60;0.80;;;;;;;17.02;100.00;97937.66;15279667;19;20021;-52
2022/06/22 01:38:32;;;;;;;1.20;0.70;;;;;;;16.96;100.00;97927.63;15272488;19;20007;-55
2022/06/22 01:43:47;;;;;;;2.58;0.80;;;;;;;16.90;100.00;97918.41;15279393;19;20022;-53
2022/06/22 01:49:00;;;;;;;1.38;0.70;;;;;;;16.85;100.00;97926.38;15275490;19;20026;-53
2022/06/22 01:54:08;;;;;;;1.02;0.55;;;;;;;16.82;100.00;97921.38;15277753;19;20006;-54
2022/06/22 01:59:23;;;;;;;2.92;0.50;;;;;;;16.76;100.00;97898.56;15274364;19;20015;-56
2022/06/22 02:04:36;;;;;;;1.27;0.55;;;;;;;16.72;100.00;97889.19;15278552;19;20020;-50
2022/06/22 02:09:56;;;;;;;0.82;0.60;;;;;;;16.75;100.00;97883.31;15265962;19;20034;-58
2022/06/22 02:15:13;;;;;;;0.93;0.50;;;;;;;16.70;100.00;97880.41;15277518;19;20010;-55
2022/06/22 02:20:32;;;;;;;2.40;0.80;;;;;;;16.56;100.00;97880.44;15273732;19;20362;-52
2022/06/22 02:25:44;;;;;;;2.78;0.60;;;;;;;16.59;100.00;97873.72;15272751;19;20126;-56
2022/06/22 02:30:51;;;;;;;;;;;;;;;16.57;100.00;97876.66;15273740;19;20043;-55
2022/06/22 02:35:59;;;;;;;1.48;0.70;;;;;;;16.51;100.00;97882.97;15274374;19;19918;-56
2022/06/22 02:46:26;;;;;;;1.20;0.60;;;;;;;16.37;100.00;97908.50;15275342;19;20014;-58
2022/06/22 02:51:36;;;;;;;1.67;0.70;;;;;;;16.33;100.00;97895.34;15271417;19;20022;-59
2022/06/22 02:56:43;;;;;;;1.85;0.70;;;;;;;16.29;100.00;97904.13;15265122;19;20018;-54
2022/06/22 03:01:51;;;;;;;1.90;0.70;;;;;;;16.25;100.00;97897.44;15270243;19;20018;-59
2022/06/22 03:06:57;;;;;;;1.95;0.85;;;;;;;16.10;100.00;97886.78;15272005;19;20022;-57
2022/06/22 03:12:04;;;;;;;2.10;0.70;;;;;;;15.99;100.00;97870.06;15276260;19;20011;-54
2022/06/22 03:17:18;;;;;;;1.50;0.70;;;;;;;16.04;100.00;97882.22;15283943;19;20021;-54
2022/06/22 03:22:28;;;;;;;1.80;0.80;;;;;;;15.94;100.00;97883.44;15285879;19;20038;-55
2022/06/22 03:27:40;;;;;;;0.97;0.50;;;;;;;15.88;100.00;97894.34;15278757;19;20350;-56
2022/06/22 03:32:54;;;;;;;3.92;0.88;;;;;;;15.83;100.00;97881.31;15286933;19;20047;-52
2022/06/22 03:38:04;;;;;;;4.53;0.75;;;;;;;15.84;100.00;97883.00;15284120;19;20039;-53
2022/06/22 03:43:14;;;;;;;1.65;0.77;;;;;;;15.84;100.00;97883.88;15278106;19;20015;-54
2022/06/22 03:48:31;;;;;;;1.38;0.75;;;;;;;15.78;100.00;97883.84;15283509;19;20039;-53
2022/06/22 03:53:42;;;;;;;1.00;0.60;;;;;;;15.83;100.00;97892.19;15283963;19;20487;-50
2022/06/22 03:58:50;;;;;;;0.95;0.60;;;;;;;15.85;100.00;97896.41;15276917;19;20022;-54
2022/06/22 04:03:59;;;;;;;1.70;0.68;;;;;;;15.83;100.00;97889.47;15285487;19;20010;-56
2022/06/22 04:09:07;;;;;;;3.65;0.80;;;;;;;15.85;100.00;97876.56;15280880;19;20475;-58
2022/06/22 04:14:19;;;;;;;1.48;0.70;;;;;;;15.83;100.00;97865.88;15285615;19;20018;-55
2022/06/22 04:19:32;;;;;;;2.22;0.65;;;;;;;15.90;100.00;97865.06;15274280;19;20043;-57
2022/06/22 04:24:50;;;;;;;3.08;0.80;;;;;;;15.96;100.00;97875.91;15286330;19;20089;-51
2022/06/22 04:30:02;;;;;;;3.95;0.85;;;;;;;16.05;100.00;97886.59;15275371;19;20394;-55
2022/06/22 04:35:22;;;;;;;1.17;0.63;;;;;;;16.14;100.00;97894.31;15274694;19;20026;-53
2022/06/22 04:40:33;;;;;;;1.63;0.70;;;;;;;16.24;100.00;97891.16;15283740;19;20086;-54
2022/06/22 04:45:42;;;;;;;3.45;0.73;;;;;;;16.36;100.00;97879.66;15299085;19;20006;-57
2022/06/22 04:50:57;;;;;;;2.92;0.90;;;;;;;16.47;100.00;97885.25;15276287;19;20031;-58
2022/06/22 04:56:07;;;;;;;1.35;0.70;;;;;;;16.54;100.00;97893.41;15288971;19;20018;-59
2022/06/22 05:01:18;;;;;;;4.70;0.87;;;;;;;16.62;100.00;97895.06;15278127;19;20047;-60
2022/06/22 05:06:32;;;;;;;0.93;0.50;;;;;;;16.53;100.00;97908.03;15279619;19;20279;-60
2022/06/22 05:11:43;;;;;;;1.52;0.80;;;;;;;16.58;100.00;97893.84;15283622;19;20010;-59
2022/06/22 05:16:56;;;;;;;1.92;0.75;;;;;;;16.60;100.00;97914.31;15296995;19;20084;-56
2022/06/22 05:22:04;;;;;;;1.80;0.88;;;;;;;16.58;100.00;97908.25;15279742;19;20022;-59
2022/06/22 05:27:12;;;;;;;1.70;0.80;;;;;;;16.63;100.00;97924.78;15284073;19;20011;-58
2022/06/22 05:32:33;;;;;;;0.82;0.57;;;;;;;16.73;100.00;97923.50;15282511;19;20479;-57
2022/06/22 05:37:46;;;;;;;3.55;0.70;;;;;;;16.88;100.00;97934.94;15277092;19;20034;-61
2022/06/22 05:42:53;;;;;;;1.23;0.70;;;;;;;17.04;100.00;97936.41;15285842;19;20691;-61
2022/06/22 05:47:59;;;;;;;1.33;0.70;;;;;;;17.18;100.00;97947.22;15282366;19;20011;-58
2022/06/22 05:53:12;;;;;;;1.77;0.73;;;;;;;17.33;100.00;97934.19;15278826;19;20030;-57
2022/06/22 05:58:25;;;;;;;2.80;0.80;;;;;;;17.46;100.00;97944.19;15299866;19;20411;-54
2022/06/22 06:03:37;;;;;;;4.18;0.70;;;;;;;17.61;100.00;97949.31;15297228;19;19995;-54
2022/06/22 06:08:48;;;;;;;1.88;0.80;;;;;;;17.75;100.00;97941.91;15270838;19;20285;-52
2022/06/22 06:13:59;;;;;;;2.22;0.80;;;;;;;17.94;100.00;97944.69;15271532;19;20014;-53
2022/06/22 06:19:08;;;;;;;2.30;0.80;;;;;;;18.07;100.00;97944.63;15252732;19;20010;-55
2022/06/22 06:24:21;;;;;;;2.22;0.55;;;;;;;18.21;100.00;97947.25;15271671;19;20291;-52
2022/06/22 06:29:33;;;;;;;1.13;0.63;;;;;;;18.34;100.00;97952.59;15276121;19;20022;-55
2022/06/22 06:34:55;;;;;;;1.38;0.70;;;;;;;18.44;100.00;97955.66;15276191;19;20467;-55
2022/06/22 06:40:04;;;;;;;2.40;0.60;;;;;;;18.60;100.00;97950.69;15267288;19;20361;-54
2022/06/22 06:45:17;;;;;;;2.85;0.70;;;;;;;18.78;100.00;97947.97;15288268;19;20459;-53
2022/06/22 06:50:27;;;;;;;1.75;0.70;;;;;;;18.89;100.00;97951.00;15287121;19;20034;-53
2022/06/22 06:55:42;;;;;;;2.67;0.73;;;;;;;18.93;100.00;97947.63;15287481;19;20006;-54
2022/06/22 07:00:51;;;;;;;1.25;0.65;;;;;;;19.11;100.00;97931.50;15279695;19;20093;-55
2022/06/22 07:05:57;;;;;;;2.22;0.60;;;;;;;19.25;100.00;97941.16;15301721;19;20022;-53
2022/06/22 07:11:12;;;;;;;1.52;0.70;;;;;;;19.38;100.00;97931.97;15310024;19;20408;-56
2022/06/22 07:16:21;;;;;;;1.20;0.60;;;;;;;19.45;100.00;97940.09;15309288;19;20024;-56
2022/06/22 07:21:34;;;;;;;1.30;0.70;;;;;;;19.54;100.00;97925.84;15289371;19;20011;-53
2022/06/22 07:26:53;;;;;;;2.00;0.70;;;;;;;19.60;99.33;97926.00;15288881;19;20015;-56
2022/06/22 07:32:12;;;;;;;1.85;0.77;;;;;;;19.69;100.00;97922.72;15274598;19;20010;-56
2022/06/22 07:37:36;;;;;;;3.22;0.80;;;;;;;19.89;100.00;97915.28;15285706;19;20422;-55
2022/06/22 07:42:47;;;;;;;2.95;0.75;;;;;;;19.91;92.99;97919.47;15288590;19;20015;-54
2022/06/22 07:47:57;;;;;;;2.50;0.80;;;;;;;20.04;97.63;97917.59;15280317;19;20018;-50
2022/06/22 07:53:07;;;;;;;2.15;0.60;;;;;;;20.16;96.48;97926.66;15285407;19;20018;-50
2022/06/22 07:58:28;;;;;;;3.40;0.70;;;;;;;20.28;90.98;97929.41;15283697;19;20030;-51
2022/06/22 08:03:38;;;;;;;1.13;0.70;;;;;;;20.46;93.99;97931.19;15280399;19;20074;-53
2022/06/22 08:08:53;;;;;;;2.55;0.60;;;;;;;20.56;98.02;97917.75;15286076;19;20014;-54
2022/06/22 08:14:07;;;;;;;1.52;0.70;;;;;;;20.75;95.53;97914.91;15286750;19;20107;-50
2022/06/22 08:19:13;;;;;;;1.77;0.68;;;;;;;20.92;96.54;97907.63;15277396;19;20011;-53
2022/06/22 08:24:21;;;;;;;0.77;0.60;;;;;;;21.04;85.52;97914.97;15284586;19;20010;-53
2022/06/22 08:29:31;;;;;;;3.05;0.70;;;;;;;21.21;83.20;97910.41;15283170;19;20503;-54
2022/06/22 08:34:41;;;;;;;2.58;0.80;;;;;;;21.35;83.47;97923.78;15277880;19;20483;-54
2022/06/22 08:39:52;;;;;;;1.38;0.80;;;;;;;21.52;76.19;97918.41;15278937;19;20015;-55
2022/06/22 08:45:14;;;;;;;1.85;0.75;;;;;;;21.68;71.08;97927.75;15282862;19;20022;-55
2022/06/22 08:50:37;;;;;;;1.83;0.60;;;;;;;21.77;71.51;97940.00;15275138;19;20030;-52
2022/06/22 08:55:57;;;;;;;2.03;0.40;;;;;;;21.88;60.54;97940.19;15283733;19;20037;-57
2022/06/22 09:01:15;;;;;;;2.40;0.75;;;;;;;22.04;62.51;97925.66;15280078;19;20020;-60
2022/06/22 09:06:56;;;;;;;2.53;0.70;;;;;;;22.22;62.64;97926.47;15274778;19;20380;-53
2022/06/22 09:12:17;;;;;;;3.30;0.80;;;;;;;22.43;66.12;97933.16;15277339;19;20018;-51
2022/06/22 09:17:39;;;;;;;1.17;0.70;;;;;;;22.63;63.01;97929.91;15280036;19;20006;-55
2022/06/22 09:22:57;;;;;;;2.25;0.70;;;;;;;22.79;61.11;97925.47;15275332;19;20387;-56
2022/06/22 09:28:07;;;;;;;1.52;0.77;;;;;;;22.95;61.50;97940.22;15280205;19;20046;-55
2022/06/22 09:33:39;;;;;;;3.85;0.80;;;;;;;22.91;57.58;97950.06;15280740;19;20389;-52
2022/06/22 09:39:24;;;;;;;1.67;0.80;;;;;;;22.85;57.55;97951.09;15266923;19;20011;-56
2022/06/22 09:44:52;;;;;;;2.03;0.60;;;;;;;22.73;58.43;97952.03;15276189;19;20017;-54
2022/06/22 09:50:23;;;;;;;0.80;0.50;;;;;;;22.75;58.69;97949.84;15276188;19;20018;-55
2022/06/22 10:01:18;;;;;;;4.07;0.80;;;;;;;23.27;57.72;97953.31;15274810;19;20027;-53
2022/06/22 10:06:47;;;;;;;2.22;0.60;;;;;;;23.25;57.42;97952.72;15279300;19;20010;-56
2022/06/22 10:12:01;;;;;;;1.27;0.70;;;;;;;23.23;58.33;97949.41;15266075;19;20018;-55
2022/06/22 10:22:59;;;;;;;6.35;0.85;;;;;;;23.57;57.78;97949.28;15286467;19;20057;-52
2022/06/22 10:28:26;;;;;;;1.63;0.70;;;;;;;23.39;57.76;97945.75;15287120;19;20010;-55
2022/06/22 10:34:12;;;;;;;2.45;0.70;;;;;;;23.66;58.57;97936.72;15290634;19;20038;-54
2022/06/22 10:39:39;;;;;;;3.08;0.77;;;;;;;24.04;59.96;97945.09;15287171;19;20046;-53
2022/06/22 10:45:13;;;;;;;2.13;0.70;;;;;;;24.22;59.90;97940.31;15284786;19;20022;-56
2022/06/22 10:50:35;;;;;;;2.05;0.70;;;;;;;24.35;56.91;97937.09;15287909;19;20602;-55
2022/06/22 10:56:07;;;;;;;1.85;0.77;;;;;;;24.33;56.82;97932.94;15289850;19;20498;-51
2022/06/22 11:01:40;;;;;;;3.50;0.80;;;;;;;24.27;54.01;97938.41;15280836;19;20042;-52
2022/06/22 11:07:05;;;;;;;2.08;0.60;;;;;;;24.33;54.60;97928.28;15290102;19;20601;-57
2022/06/22 11:12:34;;;;;;;1.55;0.65;;;;;;;24.70;56.67;97921.13;15283116;19;20018;-54
2022/06/22 11:18:14;;;;;;;3.63;0.85;;;;;;;25.05;54.58;97919.66;15279461;19;20022;-53
2022/06/22 11:23:32;;;;;;;1.85;0.60;;;;;;;25.38;54.61;97915.66;15287319;19;20015;-50
2022/06/22 11:34:49;;;;;;;3.45;0.70;;;;;;;25.94;52.54;97905.88;15279085;19;20019;-54
2022/06/22 11:40:22;;;;;;;3.10;0.60;;;;;;;26.22;52.20;97912.00;15279081;19;20022;-54
2022/06/22 11:45:54;;;;;;;2.67;0.80;;;;;;;26.41;50.04;97920.50;15282841;19;20006;-57
2022/06/22 11:51:20;;;;;;;3.92;0.73;;;;;;;26.62;50.20;97926.03;15271246;19;20027;-53
2022/06/22 11:56:40;;;;;;;3.15;0.70;;;;;;;26.02;47.78;97929.34;15286896;19;20026;-52
2022/06/22 12:01:57;;;;;;;2.42;0.68;;;;;;;26.14;48.60;97921.66;15281514;19;20041;-51
2022/06/22 12:07:22;;;;;;;3.05;0.77;;;;;;;26.34;47.37;97919.16;15279969;19;20019;-52
2022/06/22 12:12:46;;;;;;;2.35;0.73;;;;;;;26.61;47.83;97910.56;15284805;19;20014;-54
2022/06/22 12:18:07;;;;;;;3.25;0.65;;;;;;;26.89;45.30;97909.13;15284831;19;20061;-54
2022/06/22 12:23:24;;;;;;;1.75;0.80;;;;;;;27.11;45.59;97904.38;15278796;19;20553;-55
2022/06/22 12:28:45;;;;;;;1.55;0.60;;;;;;;27.49;44.52;97902.00;15283842;19;20127;-55
2022/06/22 12:34:00;;;;;;;2.17;0.70;;;;;;;27.75;45.49;97896.31;15280900;19;20475;-55
2022/06/22 12:39:11;;;;;;;2.83;0.70;;;;;;;27.70;43.46;97897.16;15272483;19;20685;-55
2022/06/22 12:44:47;;;;;;;2.53;0.60;;;;;;;27.69;41.27;97899.09;15282063;19;20015;-50
2022/06/22 12:50:53;;;;;;;2.58;0.68;;;;;;;28.08;41.49;97896.63;15278292;19;20031;-56
2022/06/22 12:56:04;;;;;;;2.13;0.70;;;;;;;28.22;40.64;97894.88;15281120;19;20484;-52
2022/06/22 13:01:09;;;;;;;6.15;0.60;;;;;;;28.54;41.29;97887.91;15277925;19;20560;-54
2022/06/22 13:06:17;;;;;;;1.60;0.60;;;;;;;28.72;40.11;97882.78;15280478;19;20022;-54
2022/06/22 13:11:26;;;;;;;2.25;0.73;;;;;;;28.32;39.54;97882.88;15272886;19;20503;-56
2022/06/22 13:16:38;;;;;;;4.65;0.75;;;;;;;28.65;40.94;97865.63;15281746;19;20018;-54
2022/06/22 13:21:54;;;;;;;0.95;0.38;;;;;;;29.19;39.66;97861.69;15275388;19;20014;-57
2022/06/22 13:27:12;;;;;;;2.00;0.60;;;;;;;28.88;37.51;97852.94;15272058;19;20025;-52
2022/06/22 13:32:20;;;;;;;2.22;0.60;;;;;;;29.11;39.77;97851.25;15279830;19;20023;-49
2022/06/22 13:37:34;;;;;;;2.60;0.65;;;;;;;29.34;39.12;97851.56;15278053;19;20059;-52
2022/06/22 13:43:15;;;;;;;1.10;0.50;;;;;;;29.12;37.11;97841.81;15272634;19;20017;-53
2022/06/22 13:48:21;;;;;;;;;;;;;;;28.97;37.85;97830.94;15277927;19;20039;-49
2022/06/22 13:53:45;;;;;;;3.80;0.70;;;;;;;28.85;37.86;97832.19;15275922;19;19914;-55
2022/06/22 13:58:55;;;;;;;1.88;0.57;;;;;;;28.94;38.10;97832.34;15271260;19;20022;-58
2022/06/22 14:04:03;;;;;;;;;;;;;;;29.15;37.51;97821.81;15276265;19;20014;-50
2022/06/22 14:09:19;;;;;;;1.27;0.60;;;;;;;29.24;37.30;97827.50;15276490;19;19919;-52
2022/06/22 14:14:31;;;;;;;4.07;0.60;;;;;;;28.76;39.72;97809.00;15271013;19;20471;-53
2022/06/22 14:19:47;;;;;;;2.67;0.70;;;;;;;29.17;38.47;97814.00;15276311;19;20419;-55
2022/06/22 14:24:54;;;;;;;0.60;0.40;;;;;;;28.86;38.68;97813.59;15274784;19;20014;-51
2022/06/22 14:30:10;;;;;;;4.00;0.60;;;;;;;29.01;38.84;97804.25;15268846;19;20348;-54
2022/06/22 14:35:29;;;;;;;3.22;0.70;;;;;;;28.94;39.25;97801.84;15270114;19;20463;-51
2022/06/22 14:40:42;;;;;;;1.50;0.60;;;;;;;28.79;38.75;97813.94;15272691;19;20018;-53
2022/06/22 14:45:51;;;;;;;3.50;0.50;;;;;;;28.93;39.36;97802.94;15270491;19;20459;-57
2022/06/22 14:51:09;;;;;;;0.68;0.50;;;;;;;28.93;38.57;97797.41;15271706;19;20010;-62
2022/06/22 14:56:26;;;;;;;0.50;0.40;;;;;;;29.42;38.33;97795.38;15273936;19;20030;-54
2022/06/22 15:01:39;;;;;;;1.25;0.57;;;;;;;29.52;37.48;97791.59;15261459;19;20018;-58
2022/06/22 15:07:05;;;;;;;3.55;0.70;;;;;;;29.28;37.10;97798.06;15283218;19;20250;-54
2022/06/22 15:17:47;;;;;;;1.00;0.60;;;;;;;28.93;38.54;97785.50;15281469;19;20030;-62
2022/06/22 15:22:57;;;;;;;3.63;0.60;;;;;;;28.74;37.54;97800.97;15283275;19;20423;-50
2022/06/22 15:28:34;;;;;;;2.38;0.60;;;;;;;28.51;37.90;97796.25;15286694;19;20007;-55
2022/06/22 15:33:40;;;;;;;1.00;0.55;;;;;;;28.52;38.11;97793.16;15280345;19;20007;-55
2022/06/22 15:38:52;;;;;;;1.08;0.60;;;;;;;28.34;37.62;97802.25;15285346;19;20299;-55
2022/06/22 15:44:14;;;;;;;2.35;0.60;;;;;;;27.99;37.15;97796.72;15285358;19;20014;-59
2022/06/22 15:49:29;;;;;;;3.03;0.50;;;;;;;28.01;38.22;97799.22;15278566;19;20046;-57
2022/06/22 15:54:44;;;;;;;0.80;0.40;;;;;;;28.09;38.50;97805.00;15285580;19;20011;-53
2022/06/22 16:00:01;;;;;;;2.83;0.60;;;;;;;28.24;38.73;97801.25;15284705;19;20019;-59
2022/06/22 16:05:44;;;;;;;1.33;0.50;;;;;;;28.84;37.26;97797.25;15279071;19;20006;-60
2022/06/22 16:16:21;;;;;;;3.03;0.70;;;;;;;29.70;35.70;97792.72;15284255;19;20014;-55
2022/06/22 16:21:32;;;;;;;2.40;0.60;;;;;;;29.46;35.21;97798.38;15274034;19;20400;-55
2022/06/22 16:26:44;;;;;;;3.53;0.68;;;;;;;29.65;35.30;97795.59;15280388;19;20416;-62
2022/06/22 16:32:03;;;;;;;3.75;0.50;;;;;;;29.94;34.47;97809.28;15276589;19;20017;-53
2022/06/22 16:37:18;;;;;;;1.05;0.60;;;;;;;30.11;34.47;97794.81;15273371;19;20341;-54
2022/06/22 16:42:31;;;;;;;1.42;0.52;;;;;;;30.20;33.51;97799.66;15275225;19;20010;-58
2022/06/22 16:48:02;;;;;;;4.25;0.68;;;;;;;30.47;34.21;97795.28;15279388;19;20027;-51
2022/06/22 16:53:08;;;;;;;0.90;0.50;;;;;;;30.67;33.78;97797.66;15278219;19;20023;-55
2022/06/22 16:58:23;;;;;;;3.03;0.45;;;;;;;30.86;33.36;97791.19;15274037;19;20030;-53
2022/06/22 17:03:40;;;;;;;1.80;0.40;;;;;;;30.89;33.06;97798.88;15277644;19;20041;-54
2022/06/22 17:09:01;;;;;;;2.50;0.50;;;;;;;30.62;33.15;97791.41;15271602;19;20038;-62
2022/06/22 17:14:17;;;;;;;4.05;0.55;;;;;;;30.40;33.72;97793.72;15278613;19;20006;-55
2022/06/22 17:19:29;;;;;;;1.27;0.55;;;;;;;29.97;34.60;97789.25;15276941;19;20014;-57
2022/06/22 17:24:46;;;;;;;3.20;0.43;;;;;;;29.77;35.32;97803.41;15276662;19;20029;-53
2022/06/22 17:29:58;;;;;;;2.10;0.60;;;;;;;30.00;35.81;97806.41;15272581;19;20046;-56
2022/06/22 17:35:18;;;;;;;4.93;0.50;;;;;;;30.07;34.77;97813.22;15277965;19;20019;-54
2022/06/22 17:40:30;;;;;;;;;;;;;;;29.92;34.11;97814.28;15277260;19;20018;-58
2022/06/22 17:45:44;;;;;;;4.72;0.50;;;;;;;29.81;34.54;97812.81;15269802;19;19942;-58
2022/06/22 17:50:54;;;;;;;1.15;0.40;;;;;;;29.65;34.61;97812.22;15268270;19;20018;-54
2022/06/22 17:56:04;;;;;;;3.03;0.50;;;;;;;29.50;35.27;97816.88;15273774;19;20202;-55
2022/06/22 18:01:27;;;;;;;1.27;0.50;;;;;;;29.06;35.60;97829.16;15266815;19;20038;-54
2022/06/22 18:06:40;;;;;;;0.68;0.40;;;;;;;28.71;36.14;97831.22;15275837;19;20018;-58
2022/06/22 18:11:50;;;;;;;1.63;0.47;;;;;;;28.62;36.78;97830.22;15272145;19;20363;-57
2022/06/22 18:16:59;;;;;;;3.13;0.60;;;;;;;28.18;37.56;97832.84;15271256;19;20010;-52
2022/06/22 18:22:16;;;;;;;2.42;0.57;;;;;;;27.82;38.45;97838.69;15272076;19;20094;-57
2022/06/22 18:27:37;;;;;;;1.83;0.60;;;;;;;27.25;39.08;97839.03;15275261;19;20011;-62
2022/06/22 18:32:51;;;;;;;1.42;0.50;;;;;;;27.04;40.01;97852.16;15273141;19;20006;-61
2022/06/22 18:38:06;;;;;;;3.63;0.70;;;;;;;26.81;39.95;97850.84;15255033;19;20006;-52
2022/06/22 18:43:20;;;;;;;2.50;0.50;;;;;;;26.46;41.13;97854.22;15286387;19;20014;-65
2022/06/22 18:48:33;;;;;;;1.98;0.60;;;;;;;25.98;41.61;97853.69;15286342;19;20015;-56
2022/06/22 18:53:52;;;;;;;1.35;0.50;;;;;;;25.72;42.38;97853.69;15282371;19;20042;-53
2022/06/22 18:59:05;;;;;;;0.93;0.50;;;;;;;25.40;42.83;97857.47;15286495;19;20034;-52
2022/06/22 19:04:19;;;;;;;1.70;0.52;;;;;;;25.02;43.46;97862.31;15287509;19;21027;-63
2022/06/22 19:09:40;;;;;;;1.42;0.55;;;;;;;24.61;45.22;97858.25;15288914;19;20019;-52
2022/06/22 19:14:46;;;;;;;0.60;0.40;;;;;;;24.29;45.42;97856.38;15287937;19;20006;-53
2022/06/22 19:20:04;;;;;;;1.83;0.50;;;;;;;24.00;45.82;97867.75;15275093;19;20014;-52
2022/06/22 19:25:28;;;;;;;1.50;0.68;;;;;;;23.65;46.85;97873.72;15279562;19;20049;-53
2022/06/22 19:30:39;;;;;;;1.83;0.60;;;;;;;23.35;46.68;97875.06;15281539;19;20021;-53
2022/06/22 19:35:55;;;;;;;0.77;0.60;;;;;;;23.14;46.37;97884.97;15281492;19;20010;-56
2022/06/22 19:41:08;;;;;;;0.80;0.50;;;;;;;22.92;47.13;97886.66;15283780;19;20025;-52
2022/06/22 19:46:32;;;;;;;2.85;0.90;;;;;;;22.76;47.33;97895.75;15288428;19;21095;-56
2022/06/22 19:51:45;;;;;;;1.23;0.75;;;;;;;22.63;46.40;97894.22;15274477;19;20018;-56
2022/06/22 19:56:58;;;;;;;2.00;0.63;;;;;;;22.47;45.66;97902.22;15285132;19;20742;-59
2022/06/22 20:02:12;;;;;;;1.08;0.50;;;;;;;22.36;45.77;97903.13;15283710;19;20014;-52
2022/06/22 20:07:20;;;;;;;1.38;0.60;;;;;;;22.29;45.16;97899.69;15284850;19;20046;-54
2022/06/22 20:12:36;;;;;;;1.05;0.50;;;;;;;22.22;44.63;97897.16;15275306;19;20018;-65
2022/06/22 20:17:52;;;;;;;2.33;0.60;;;;;;;22.15;44.47;97907.44;15280465;19;20018;-52
2022/06/22 20:23:11;;;;;;;0.63;0.60;;;;;;;22.00;44.03;97911.59;15269420;19;20038;-51
2022/06/22 20:28:31;;;;;;;1.70;0.65;;;;;;;21.91;44.42;97918.56;15280436;19;20010;-52
2022/06/22 20:34:08;;;;;;;1.00;0.50;;;;;;;21.82;44.57;97918.13;15281229;19;20622;-56
2022/06/22 20:39:19;;;;;;;0.50;0.40;;;;;;;21.72;44.74;97928.91;15281988;19;20010;-62
2022/06/22 20:44:56;;;;;;;1.73;0.60;;;;;;;21.59;44.18;97931.91;15272908;19;20021;-55
2022/06/22 20:50:11;;;;;;;2.28;0.68;;;;;;;21.45;44.75;97937.72;15277583;19;20022;-54
2022/06/22 20:55:29;;;;;;;0.47;0.35;;;;;;;21.40;44.92;97943.09;15273682;19;20035;-55
2022/06/22 21:00:41;;;;;;;2.15;0.50;;;;;;;21.29;45.71;97954.91;15276996;19;20021;-55
2022/06/22 21:05:51;;;;;;;1.27;0.55;;;;;;;21.18;45.82;97968.41;15279135;19;20037;-57
2022/06/22 21:11:26;;;;;;;2.10;0.47;;;;;;;20.94;47.32;97965.72;15276707;19;20046;-55
2022/06/22 21:16:51;;;;;;;2.25;0.50;;;;;;;20.74;47.37;97966.06;15274626;19;20018;-53
2022/06/22 21:22:16;;;;;;;2.47;0.60;;;;;;;20.51;48.28;97972.38;15275680;19;20033;-55
2022/06/22 21:27:24;;;;;;;1.25;0.50;;;;;;;20.37;48.74;97981.88;15273568;19;20014;-53
2022/06/22 21:32:35;;;;;;;1.15;0.50;;;;;;;20.24;49.11;97978.28;15277695;19;20035;-56
2022/06/22 21:38:00;;;;;;;1.70;0.40;;;;;;;20.12;49.58;97982.88;15278966;19;20029;-55
2022/06/22 21:43:27;;;;;;;1.08;0.50;;;;;;;19.98;50.17;97985.81;15274749;19;20018;-53
2022/06/22 21:48:55;;;;;;;1.75;0.57;;;;;;;19.91;51.87;97987.81;15271528;19;20017;-52
2022/06/22 21:54:30;;;;;;;1.40;0.60;;;;;;;19.68;51.69;97994.84;15276337;19;20013;-53
2022/06/22 21:59:51;;;;;;;1.83;0.50;;;;;;;19.61;51.50;97985.06;15270274;19;20392;-54
2022/06/22 22:05:04;;;;;;;0.73;0.50;;;;;;;19.56;51.05;97985.75;15276434;19;20007;-52
2022/06/22 22:10:13;;;;;;;1.58;0.55;;;;;;;19.61;50.32;97985.88;15274583;19;20010;-53
2022/06/22 22:15:23;;;;;;;1.10;0.40;;;;;;;19.66;50.17;97996.97;15272418;19;20436;-57
2022/06/22 22:20:35;;;;;;;1.10;0.52;;;;;;;19.55;53.76;97984.09;15270425;19;20015;-55
2022/06/22 22:25:45;;;;;;;1.15;0.40;;;;;;;19.40;53.64;97982.56;15275260;19;20440;-55
2022/06/22 22:30:56;;;;;;;1.70;0.60;;;;;;;19.29;54.36;97980.63;15268584;19;20038;-57
2022/06/22 22:36:17;;;;;;;1.20;0.40;;;;;;;19.13;53.92;97970.31;15272522;19;20015;-53
2022/06/22 22:41:25;;;;;;;2.28;0.57;;;;;;;19.24;51.70;97975.84;15271854;19;20054;-57
2022/06/22 22:46:35;;;;;;;0.98;0.50;;;;;;;19.34;51.14;97979.94;15274698;19;20086;-54
2022/06/22 22:51:47;;;;;;;1.23;0.65;;;;;;;19.38;51.60;97978.41;15265933;19;20086;-56
2022/06/22 22:56:59;;;;;;;1.10;0.40;;;;;;;19.29;53.79;97986.09;15274253;19;20329;-53
2022/06/22 23:02:29;;;;;;;0.95;0.60;;;;;;;19.13;54.74;97984.81;15269054;19;20010;-54
2022/06/22 23:07:38;;;;;;;;;;;;;;;18.96;55.72;97979.13;15266868;19;20002;-53
2022/06/22 23:12:44;;;;;;;1.48;0.60;;;;;;;18.81;55.03;97989.53;15272840;19;19934;-52
2022/06/22 23:17:49;;;;;;;3.78;0.70;;;;;;;18.62;57.53;98001.22;15273512;19;20393;-53
2022/06/22 23:23:01;;;;;;;1.17;0.60;;;;;;;18.47;60.09;97993.41;15261685;19;20030;-57
2022/06/22 23:28:06;;;;;;;;;;;;;;;18.22;65.59;98001.59;15285789;19;20021;-56
2022/06/22 23:33:24;;;;;;;3.17;0.70;;;;;;;18.09;64.11;98007.94;15286557;19;20778;-57
2022/06/22 23:38:42;;;;;;;1.80;0.47;;;;;;;17.93;62.96;98008.47;15279154;19;20042;-53
2022/06/22 23:43:51;;;;;;;1.40;0.40;;;;;;;17.89;63.33;98012.66;15282481;19;20014;-52
2022/06/22 23:49:00;;;;;;;1.33;0.60;;;;;;;17.80;65.25;98023.84;15029915;19;5001118;-55
2022/06/22 23:54:12;;;;;;;1.52;0.57;;;;;;;17.75;67.00;98023.63;15279786;19;20006;-56
2022/06/22 23:59:20;;;;;;;1.30;0.63;;;;;;;17.52;69.47;98025.00;15285703;19;20025;-55
